createdAt,value
2023-02-28T00:01:32.114Z,3.73
2023-02-28T00:04:00.387Z,3.60
2023-02-28T00:06:28.849Z,3.27
2023-02-28T00:08:56.817Z,3.57
2023-02-28T00:11:24.488Z,3.00
2023-02-28T00:13:52.540Z,3.37
2023-02-28T00:16:23.135Z,3.33
2023-02-28T00:18:51.957Z,2.90
2023-02-28T00:21:21.252Z,3.17
2023-02-28T00:23:49.968Z,3.30
2023-02-28T00:26:18.671Z,3.27
2023-02-28T00:28:48.033Z,3.00
2023-02-28T00:31:15.738Z,3.30
2023-02-28T00:33:43.917Z,3.10
2023-02-28T00:36:12.623Z,2.50
2023-02-28T00:38:42.203Z,2.93
2023-02-28T00:41:10.319Z,3.57
2023-02-28T00:43:39.970Z,3.17
2023-02-28T00:46:08.964Z,2.50
2023-02-28T00:48:37.340Z,2.30
2023-02-28T00:51:05.957Z,2.43
2023-02-28T00:53:33.969Z,2.50
2023-02-28T00:56:01.870Z,2.40
2023-02-28T00:58:29.940Z,2.23
2023-02-28T01:00:58.512Z,2.20
2023-02-28T01:03:26.524Z,2.60
2023-02-28T01:05:54.283Z,2.37
2023-02-28T01:08:21.975Z,2.07
2023-02-28T01:10:49.946Z,2.10
2023-02-28T01:13:17.645Z,1.80
2023-02-28T01:15:57.641Z,1.70
2023-02-28T01:18:26.309Z,1.60
2023-02-28T01:20:54.320Z,2.57
2023-02-28T01:23:24.485Z,1.43
2023-02-28T01:25:53.072Z,1.77
2023-02-28T01:28:21.412Z,1.40
2023-02-28T01:30:51.689Z,1.63
2023-02-28T01:33:19.629Z,1.50
2023-02-28T01:35:47.433Z,1.60
2023-02-28T01:38:22.606Z,1.70
2023-02-28T01:40:52.832Z,1.90
2023-02-28T01:43:52.268Z,1.50
2023-02-28T01:46:20.190Z,1.50
2023-02-28T01:49:09.774Z,1.50
2023-02-28T01:51:51.604Z,1.43
2023-02-28T01:54:33.547Z,1.60
2023-02-28T01:57:15.902Z,1.83
2023-02-28T01:59:54.998Z,1.83
2023-02-28T02:02:25.296Z,1.57
2023-02-28T02:05:04.445Z,2.10
2023-02-28T02:07:39.295Z,1.53
2023-02-28T02:10:45.419Z,2.00
2023-02-28T02:13:56.175Z,1.90
2023-02-28T02:16:39.166Z,2.00
2023-02-28T02:19:15.953Z,2.20
2023-02-28T02:22:04.863Z,1.70
2023-02-28T02:25:20.196Z,2.00
2023-02-28T02:28:15.483Z,1.90
2023-02-28T02:31:08.228Z,1.90
2023-02-28T02:34:22.319Z,2.33
2023-02-28T02:37:12.308Z,1.90
2023-02-28T02:40:09.201Z,2.00
2023-02-28T02:42:46.745Z,2.20
2023-02-28T02:45:25.469Z,1.97
2023-02-28T02:47:57.791Z,2.27
2023-02-28T02:50:34.663Z,2.07
2023-02-28T02:53:04.886Z,2.13
2023-02-28T02:55:39.586Z,1.87
2023-02-28T02:58:15.200Z,3.10
2023-02-28T03:00:51.038Z,2.30
2023-02-28T03:03:21.610Z,2.50
2023-02-28T03:05:51.689Z,2.20
2023-02-28T03:08:19.343Z,2.83
2023-02-28T03:10:51.551Z,2.30
2023-02-28T03:13:49.942Z,2.00
2023-02-28T03:16:38.635Z,2.43
2023-02-28T03:20:01.839Z,2.20
2023-02-28T03:22:59.095Z,2.27
2023-02-28T03:25:35.120Z,2.50
2023-02-28T03:28:30.503Z,2.30
2023-02-28T03:31:11.143Z,2.60
2023-02-28T03:34:03.017Z,2.50
2023-02-28T03:36:46.217Z,2.63
2023-02-28T03:39:28.057Z,3.20
2023-02-28T03:42:06.662Z,2.73
2023-02-28T03:44:46.594Z,3.93
2023-02-28T03:47:25.053Z,3.73
2023-02-28T03:49:57.716Z,2.97
2023-02-28T03:52:32.723Z,2.93
2023-02-28T03:55:08.193Z,2.90
2023-02-28T03:58:02.457Z,3.00
2023-02-28T04:00:39.071Z,2.87
2023-02-28T04:03:07.200Z,2.60
2023-02-28T04:05:53.708Z,3.03
2023-02-28T04:08:23.021Z,3.00
2023-02-28T04:11:14.443Z,2.73
2023-02-28T04:13:42.138Z,2.63
2023-02-28T04:16:18.793Z,2.67
2023-02-28T04:18:52.371Z,3.20
2023-02-28T04:21:23.151Z,3.43
2023-02-28T04:23:50.828Z,3.03
2023-02-28T04:26:18.525Z,2.60
2023-02-28T04:28:46.266Z,3.27
2023-02-28T04:31:14.003Z,3.80
2023-02-28T04:33:41.883Z,4.13
2023-02-28T04:36:09.999Z,3.13
2023-02-28T04:38:39.279Z,3.07
2023-02-28T04:41:07.489Z,3.03
2023-02-28T04:43:35.156Z,2.90
2023-02-28T04:46:06.007Z,3.17
2023-02-28T04:48:36.703Z,3.20
2023-02-28T04:51:06.497Z,2.97
2023-02-28T04:53:34.852Z,3.33
2023-02-28T04:56:02.516Z,2.97
2023-02-28T04:58:30.907Z,3.63
2023-02-28T05:01:27.345Z,3.50
2023-02-28T05:03:57.968Z,3.53
2023-02-28T05:06:27.975Z,4.03
2023-02-28T05:08:56.095Z,4.10
2023-02-28T05:11:35.698Z,3.50
2023-02-28T05:14:06.666Z,3.93
2023-02-28T05:16:34.395Z,4.30
2023-02-28T05:19:02.170Z,4.07
2023-02-28T05:21:38.481Z,4.03
2023-02-28T05:24:10.459Z,3.73
2023-02-28T05:26:44.727Z,4.07
2023-02-28T05:29:16.507Z,4.40
2023-02-28T05:31:44.300Z,3.57
2023-02-28T05:34:17.032Z,3.97
2023-02-28T05:36:44.831Z,4.23
2023-02-28T05:39:13.832Z,5.83
2023-02-28T05:41:43.511Z,4.93
2023-02-28T05:44:11.771Z,4.70
2023-02-28T05:46:39.662Z,4.90
2023-02-28T05:49:10.316Z,3.50
2023-02-28T05:51:43.849Z,4.00
2023-02-28T05:54:17.038Z,3.93
2023-02-28T05:56:52.204Z,4.23
2023-02-28T05:59:19.990Z,4.33
2023-02-28T06:01:50.300Z,4.70
2023-02-28T06:04:31.131Z,4.03
2023-02-28T06:06:59.561Z,4.10
2023-02-28T06:09:27.401Z,5.50
2023-02-28T06:11:55.140Z,4.83
2023-02-28T06:14:22.742Z,4.70
2023-02-28T06:16:53.640Z,4.23
2023-02-28T06:19:23.276Z,4.37
2023-02-28T06:21:53.264Z,5.10
2023-02-28T06:24:25.532Z,5.73
2023-02-28T06:26:53.166Z,4.33
2023-02-28T06:29:20.886Z,4.97
2023-02-28T06:31:49.572Z,4.57
2023-02-28T06:34:18.029Z,4.80
2023-02-28T06:36:45.749Z,4.57
2023-02-28T06:39:13.346Z,4.80
2023-02-28T06:41:54.249Z,4.30
2023-02-28T06:44:24.738Z,5.33
2023-02-28T06:46:52.431Z,4.23
2023-02-28T06:49:20.214Z,4.27
2023-02-28T06:51:48.078Z,4.77
2023-02-28T06:54:16.159Z,3.93
2023-02-28T06:56:43.742Z,4.57
2023-02-28T06:59:11.433Z,4.60
2023-02-28T07:01:39.966Z,4.57
2023-02-28T07:04:08.500Z,4.20
2023-02-28T07:06:36.726Z,4.43
2023-02-28T07:09:09.332Z,4.10
2023-02-28T07:11:37.323Z,4.40
2023-02-28T07:14:05.066Z,5.27
2023-02-28T07:16:32.931Z,4.63
2023-02-28T07:19:00.768Z,4.27
2023-02-28T07:21:29.133Z,4.40
2023-02-28T07:23:57.611Z,4.63
2023-02-28T07:26:25.571Z,5.13
2023-02-28T07:28:53.816Z,4.93
2023-02-28T07:31:21.568Z,4.83
2023-02-28T07:33:49.286Z,5.47
2023-02-28T07:36:19.766Z,4.80
2023-02-28T07:38:51.723Z,4.80
2023-02-28T07:41:22.216Z,4.83
2023-02-28T07:43:49.947Z,4.90
2023-02-28T07:46:18.182Z,5.70
2023-02-28T07:48:45.981Z,5.60
2023-02-28T07:51:14.096Z,5.63
2023-02-28T07:53:41.963Z,5.87
2023-02-28T07:56:11.672Z,5.80
2023-02-28T07:58:39.406Z,5.30
2023-02-28T08:01:10.579Z,5.40
2023-02-28T08:03:39.871Z,4.80
2023-02-28T08:06:21.381Z,5.10
2023-02-28T08:08:49.484Z,5.07
2023-02-28T08:11:18.216Z,5.70
2023-02-28T08:13:46.511Z,4.70
2023-02-28T08:16:18.618Z,5.27
2023-02-28T08:18:47.916Z,5.13
2023-02-28T08:21:23.663Z,4.90
2023-02-28T08:23:52.348Z,5.17
2023-02-28T08:26:21.430Z,6.33
2023-02-28T08:28:49.832Z,5.00
2023-02-28T08:31:18.225Z,5.20
2023-02-28T08:33:46.721Z,5.50
2023-02-28T08:36:14.700Z,4.33
2023-02-28T08:38:42.478Z,4.67
2023-02-28T08:41:13.415Z,4.80
2023-02-28T08:43:42.493Z,5.07
2023-02-28T08:46:14.714Z,5.03
2023-02-28T08:48:42.680Z,5.23
2023-02-28T08:51:22.438Z,4.43
2023-02-28T08:53:50.432Z,4.73
2023-02-28T08:56:18.608Z,4.73
2023-02-28T08:58:48.200Z,5.63
2023-02-28T09:01:18.518Z,4.00
2023-02-28T09:03:50.652Z,4.20
2023-02-28T09:06:20.716Z,5.50
2023-02-28T09:08:48.828Z,4.53
2023-02-28T09:11:17.087Z,4.10
2023-02-28T09:13:45.014Z,3.43
2023-02-28T09:16:19.241Z,2.80
2023-02-28T09:18:47.153Z,3.00
2023-02-28T09:21:18.330Z,3.47
2023-02-28T09:23:54.103Z,2.70
2023-02-28T09:26:32.583Z,2.53
2023-02-28T09:32:35.028Z,2.80
2023-02-28T09:35:05.181Z,3.13
2023-02-28T09:37:35.334Z,2.73
2023-02-28T09:40:04.360Z,3.27
2023-02-28T09:42:34.704Z,3.13
2023-02-28T09:45:36.338Z,2.77
2023-02-28T09:48:28.853Z,2.60
2023-02-28T09:51:42.122Z,2.73
2023-02-28T09:54:20.398Z,2.70
2023-02-28T09:57:06.205Z,2.53
2023-02-28T09:59:49.416Z,2.37
2023-02-28T10:02:38.823Z,2.10
2023-02-28T10:05:13.536Z,2.10
2023-02-28T10:08:16.989Z,2.20
2023-02-28T10:10:54.309Z,2.30
2023-02-28T10:13:51.361Z,2.50
2023-02-28T10:16:52.770Z,2.53
2023-02-28T10:19:34.035Z,2.20
2023-02-28T10:22:08.015Z,2.10
2023-02-28T10:24:44.566Z,2.50
2023-02-28T10:27:29.897Z,2.90
2023-02-28T10:30:04.449Z,2.17
2023-02-28T10:32:39.028Z,4.37
2023-02-28T10:35:21.741Z,3.10
2023-02-28T10:37:56.723Z,2.90
2023-02-28T10:41:17.494Z,3.33
2023-02-28T10:43:48.376Z,2.90
2023-02-28T10:46:27.239Z,2.40
2023-02-28T10:49:06.130Z,2.60
2023-02-28T10:51:41.116Z,2.77
2023-02-28T10:54:40.097Z,2.87
2023-02-28T10:57:27.149Z,2.30
2023-02-28T11:00:19.980Z,1.87
2023-02-28T11:02:48.187Z,2.40
2023-02-28T11:05:24.713Z,2.00
2023-02-28T11:08:15.983Z,2.10
2023-02-28T11:10:58.409Z,1.97
2023-02-28T11:13:33.237Z,2.20
2023-02-28T11:16:08.683Z,2.03
2023-02-28T11:18:39.228Z,1.90
2023-02-28T11:21:07.501Z,2.57
2023-02-28T11:23:41.342Z,2.00
2023-02-28T11:26:12.591Z,2.40
2023-02-28T11:28:42.885Z,2.17
2023-02-28T11:31:14.797Z,2.73
2023-02-28T11:33:53.118Z,2.30
2023-02-28T11:36:28.776Z,2.30
2023-02-28T11:39:13.541Z,3.10
2023-02-28T11:42:34.263Z,2.07
2023-02-28T11:45:24.557Z,2.57
2023-02-28T11:48:32.224Z,2.70
2023-02-28T11:51:44.546Z,2.33
2023-02-28T11:54:55.260Z,2.67
2023-02-28T11:57:51.482Z,2.50
2023-02-28T12:00:44.223Z,2.50
2023-02-28T12:03:59.567Z,2.33
2023-02-28T12:07:04.734Z,2.50
2023-02-28T12:10:15.974Z,2.83
2023-02-28T12:13:15.586Z,2.07
2023-02-28T12:16:16.939Z,2.60
2023-02-28T12:19:05.662Z,2.47
2023-02-28T12:22:04.924Z,2.67
2023-02-28T12:25:04.399Z,2.80
2023-02-28T12:27:39.782Z,2.47
2023-02-28T12:30:33.194Z,3.00
2023-02-28T12:33:10.218Z,2.47
2023-02-28T12:35:59.822Z,2.20
2023-02-28T12:38:37.386Z,2.60
2023-02-28T12:41:11.841Z,2.40
2023-02-28T12:44:04.859Z,3.10
2023-02-28T12:46:42.787Z,2.53
2023-02-28T12:49:19.118Z,2.80
2023-02-28T12:51:48.030Z,2.23
2023-02-28T12:54:29.692Z,2.33
2023-02-28T12:57:26.179Z,2.20
2023-02-28T13:00:02.600Z,2.30
2023-02-28T13:03:10.370Z,3.37
2023-02-28T13:06:41.727Z,2.47
2023-02-28T13:09:17.613Z,3.47
2023-02-28T13:11:52.091Z,3.47
2023-02-28T13:14:36.915Z,2.90
2023-02-28T13:17:10.770Z,2.53
2023-02-28T13:19:52.980Z,2.60
2023-02-28T13:22:49.857Z,2.97
2023-02-28T13:25:23.902Z,2.93
2023-02-28T13:27:57.915Z,2.77
2023-02-28T13:30:56.952Z,2.00
2023-02-28T13:33:45.240Z,3.60
2023-02-28T13:36:16.546Z,2.73
2023-02-28T13:38:46.529Z,2.43
2023-02-28T13:41:45.293Z,2.57
2023-02-28T13:44:20.695Z,2.50
2023-02-28T13:46:48.520Z,2.87
2023-02-28T13:49:29.355Z,4.10
2023-02-28T13:52:17.757Z,3.23
2023-02-28T13:55:21.079Z,2.47
2023-02-28T13:58:48.046Z,2.90
2023-02-28T14:01:33.866Z,2.50
2023-02-28T14:04:22.878Z,3.13
2023-02-28T14:06:57.123Z,2.20
2023-02-28T14:09:28.220Z,2.90
2023-02-28T14:11:56.926Z,2.43
2023-02-28T14:14:36.984Z,3.43
2023-02-28T14:17:13.556Z,3.10
2023-02-28T14:19:44.836Z,3.17
2023-02-28T14:22:51.938Z,3.33
2023-02-28T14:26:07.808Z,4.07
2023-02-28T14:29:04.693Z,2.90
2023-02-28T14:31:43.581Z,3.07
2023-02-28T14:34:41.635Z,2.80
2023-02-28T14:37:21.165Z,3.23
2023-02-28T14:39:49.760Z,2.80
2023-02-28T14:42:32.594Z,3.13
2023-02-28T14:45:00.976Z,3.40
2023-02-28T14:47:36.213Z,3.03
2023-02-28T14:50:06.008Z,3.20
2023-02-28T14:52:34.540Z,3.07
2023-02-28T14:55:15.562Z,3.23
2023-02-28T14:58:07.802Z,3.03
2023-02-28T15:00:47.317Z,4.27
2023-02-28T15:03:38.257Z,3.60
2023-02-28T15:09:22.789Z,3.47
2023-02-28T15:12:05.041Z,4.60
2023-02-28T15:14:39.534Z,5.43
2023-02-28T15:17:23.318Z,4.03
2023-02-28T15:19:54.929Z,4.00
2023-02-28T15:22:36.771Z,3.20
2023-02-28T15:25:07.092Z,3.20
2023-02-28T15:28:23.477Z,3.77
2023-02-28T15:31:50.513Z,3.23
2023-02-28T15:34:26.524Z,3.10
2023-02-28T15:36:58.299Z,3.57
2023-02-28T15:39:52.130Z,3.80
2023-02-28T15:42:33.546Z,3.13
2023-02-28T15:45:04.492Z,2.93
2023-02-28T15:48:13.465Z,3.80
2023-02-28T15:51:00.857Z,3.67
2023-02-28T15:53:51.464Z,3.40
2023-02-28T15:56:40.529Z,2.83
2023-02-28T15:59:50.288Z,3.60
2023-02-28T16:02:55.217Z,3.17
2023-02-28T16:05:46.122Z,3.50
2023-02-28T16:08:18.833Z,3.20
2023-02-28T16:10:46.886Z,2.77
2023-02-28T16:13:16.218Z,3.00
2023-02-28T16:16:33.979Z,3.60
2023-02-28T16:18:43.689Z,3.73
2023-02-28T16:21:29.738Z,4.37
2023-02-28T16:24:10.370Z,2.97
2023-02-28T16:26:42.278Z,3.87
2023-02-28T16:29:38.109Z,3.70
2023-02-28T16:32:16.988Z,4.53
2023-02-28T16:35:10.735Z,3.70
2023-02-28T16:37:38.998Z,3.40
2023-02-28T16:40:18.586Z,3.77
2023-02-28T16:42:52.610Z,3.67
2023-02-28T16:45:27.091Z,4.40
2023-02-28T16:47:55.896Z,4.37
2023-02-28T16:50:35.708Z,3.77
2023-02-28T16:53:03.779Z,3.93
2023-02-28T16:55:31.726Z,3.40
2023-02-28T16:58:02.324Z,4.17
2023-02-28T17:00:33.043Z,3.33
2023-02-28T17:03:07.433Z,3.47
2023-02-28T17:05:42.142Z,3.50
2023-02-28T17:08:10.588Z,2.90
2023-02-28T17:10:40.794Z,2.70
2023-02-28T17:13:15.396Z,6.90
2023-02-28T17:15:56.796Z,3.53
2023-02-28T17:18:24.726Z,3.97
2023-02-28T17:20:52.607Z,3.53
2023-02-28T17:23:22.002Z,3.03
2023-02-28T17:25:59.166Z,4.07
2023-02-28T17:28:29.758Z,4.00
2023-02-28T17:31:06.256Z,3.43
2023-02-28T17:33:34.260Z,4.20
2023-02-28T17:36:07.988Z,3.90
2023-02-28T17:38:44.543Z,4.13
2023-02-28T17:41:13.253Z,4.17
2023-02-28T17:43:42.462Z,3.60
2023-02-28T17:46:25.849Z,4.00
2023-02-28T17:48:55.223Z,4.03
2023-02-28T17:51:25.549Z,4.60
2023-02-28T17:53:53.905Z,5.17
2023-02-28T17:56:27.281Z,3.40
2023-02-28T17:59:00.749Z,4.20
2023-02-28T18:01:29.137Z,4.40
2023-02-28T18:04:06.051Z,4.83
2023-02-28T18:06:50.779Z,4.23
2023-02-28T18:09:28.047Z,4.53
2023-02-28T18:11:57.454Z,5.03
2023-02-28T18:14:59.232Z,4.37
2023-02-28T18:17:27.690Z,4.23
2023-02-28T18:20:01.512Z,4.27
2023-02-28T18:22:40.644Z,5.00
2023-02-28T18:25:33.942Z,5.90
2023-02-28T18:28:27.348Z,4.40
2023-02-28T18:31:16.937Z,5.40
2023-02-28T18:33:53.319Z,4.67
2023-02-28T18:36:22.641Z,4.93
2023-02-28T18:39:15.479Z,5.30
2023-02-28T18:41:44.814Z,5.20
2023-02-28T18:44:19.893Z,5.83
2023-02-28T18:46:56.277Z,5.87
2023-02-28T18:52:59.537Z,6.60
2023-02-28T18:56:01.160Z,7.53
2023-02-28T18:59:45.852Z,5.03
2023-02-28T19:07:28.052Z,6.23
2023-02-28T19:23:28.356Z,4.97
2023-02-28T19:25:56.715Z,5.70
2023-02-28T19:28:34.156Z,5.83
2023-02-28T19:32:05.697Z,5.83
2023-02-28T19:39:10.217Z,6.67
2023-02-28T19:41:54.271Z,6.43
2023-02-28T19:45:00.469Z,9.17
2023-02-28T19:51:21.445Z,9.03
2023-02-28T19:53:53.018Z,9.20
2023-02-28T19:56:33.699Z,7.93
2023-02-28T19:59:09.529Z,7.90
2023-02-28T20:01:44.843Z,8.23
2023-02-28T20:04:13.825Z,9.00
2023-02-28T20:06:42.231Z,8.90
2023-02-28T20:09:09.844Z,9.37
2023-02-28T20:11:40.865Z,8.97
2023-02-28T20:14:08.797Z,8.77
2023-02-28T20:16:36.632Z,9.33
2023-02-28T20:19:04.446Z,10.40
2023-02-28T20:21:32.749Z,9.03
2023-02-28T20:24:00.598Z,10.57
2023-02-28T20:26:28.804Z,10.57
2023-02-28T20:28:56.804Z,9.67
2023-02-28T20:31:25.744Z,10.30
2023-02-28T20:33:53.654Z,12.50
2023-02-28T20:36:22.642Z,10.43
2023-02-28T20:38:51.995Z,10.40
2023-02-28T20:41:20.346Z,10.63
2023-02-28T20:43:52.873Z,10.00
2023-02-28T20:46:21.051Z,10.73
2023-02-28T20:48:49.027Z,10.53
2023-02-28T20:51:17.765Z,10.33
2023-02-28T20:53:48.352Z,16.40
2023-02-28T20:56:22.274Z,12.37
2023-02-28T20:58:56.019Z,12.00
2023-02-28T21:01:27.626Z,11.67
2023-02-28T21:03:59.314Z,13.10
2023-02-28T21:06:32.217Z,13.30
2023-02-28T21:09:00.979Z,12.27
2023-02-28T21:11:32.426Z,12.00
2023-02-28T21:14:03.920Z,12.43
2023-02-28T21:16:32.590Z,13.23
2023-02-28T21:19:06.680Z,12.03
2023-02-28T21:21:44.091Z,14.90
2023-02-28T21:24:14.923Z,18.27
2023-02-28T21:26:44.926Z,20.80
2023-02-28T21:29:14.216Z,18.63
2023-02-28T21:31:42.513Z,20.20
2023-02-28T21:34:12.719Z,18.70
2023-02-28T21:36:47.459Z,17.93
2023-02-28T21:39:23.654Z,23.13
2023-02-28T21:41:53.079Z,20.87
2023-02-28T21:44:22.564Z,20.93
2023-02-28T21:46:54.964Z,20.23
2023-02-28T21:49:23.152Z,22.30
2023-02-28T21:51:50.910Z,21.33
2023-02-28T21:54:19.103Z,20.20
2023-02-28T21:56:46.933Z,19.10
2023-02-28T21:59:15.117Z,13.50
2023-02-28T22:01:44.527Z,13.30
2023-02-28T22:04:22.613Z,13.53
2023-02-28T22:06:54.567Z,12.17
2023-02-28T22:09:22.637Z,15.20
2023-02-28T22:11:51.102Z,15.13
2023-02-28T22:14:19.314Z,14.47
2023-02-28T22:16:51.672Z,13.30
2023-02-28T22:19:22.737Z,12.03
2023-02-28T22:21:51.618Z,11.83
2023-02-28T22:24:23.302Z,10.27
2023-02-28T22:26:52.338Z,11.60
2023-02-28T22:29:20.053Z,11.93
2023-02-28T22:31:47.977Z,13.27
2023-02-28T22:34:16.008Z,14.13
2023-02-28T22:36:43.950Z,13.00
2023-02-28T22:39:11.915Z,13.67
2023-02-28T22:41:40.427Z,13.27
2023-02-28T22:44:10.812Z,12.57
2023-02-28T22:46:38.901Z,11.87
2023-02-28T22:49:07.107Z,11.83
2023-02-28T22:51:35.170Z,11.80
2023-02-28T22:54:03.856Z,13.63
2023-02-28T22:56:32.129Z,13.90
2023-02-28T22:59:01.197Z,12.60
2023-02-28T23:01:32.516Z,12.60
2023-02-28T23:04:00.943Z,13.37
2023-02-28T23:06:37.976Z,12.83
2023-02-28T23:09:08.896Z,12.60
2023-02-28T23:11:46.916Z,13.70
2023-02-28T23:14:17.944Z,13.10
2023-02-28T23:16:50.311Z,13.73
2023-02-28T23:19:29.792Z,11.67
2023-02-28T23:22:00.271Z,10.97
2023-02-28T23:24:32.211Z,10.87
2023-02-28T23:27:04.842Z,12.73
2023-02-28T23:29:33.939Z,13.30
2023-02-28T23:32:02.346Z,14.70
2023-02-28T23:34:30.545Z,17.20
2023-02-28T23:37:01.522Z,20.47
2023-02-28T23:39:31.195Z,23.87
2023-02-28T23:41:59.637Z,21.00
2023-02-28T23:44:27.555Z,20.60
2023-02-28T23:46:55.662Z,20.30
2023-02-28T23:49:23.430Z,19.83
2023-02-28T23:51:54.249Z,19.67
2023-02-28T23:54:22.204Z,18.47
2023-02-28T23:56:50.257Z,16.93
2023-02-28T23:59:17.903Z,17.10
